sensor_id;sensor_type;location;lat;lon;timestamp;P1;durP1;ratioP1;P2;durP2;ratioP2
6842;SDS011;3460;52.028;8.916;2023-02-12T00:01:03;34.27;;;22.73;;
6842;SDS011;3460;52.028;8.916;2023-02-12T00:03:34;31.80;;;21.97;;
6842;SDS011;3460;52.028;8.916;2023-02-12T00:06:02;33.43;;;22.30;;
6842;SDS011;3460;52.028;8.916;2023-02-12T00:08:29;31.93;;;22.10;;
6842;SDS011;3460;52.028;8.916;2023-02-12T00:10:55;29.90;;;21.00;;
6842;SDS011;3460;52.028;8.916;2023-02-12T00:13:22;35.30;;;21.97;;
6842;SDS011;3460;52.028;8.916;2023-02-12T00:15:49;33.40;;;22.87;;
6842;SDS011;3460;52.028;8.916;2023-02-12T00:18:15;33.73;;;21.97;;
6842;SDS011;3460;52.028;8.916;2023-02-12T00:20:42;30.40;;;21.93;;
6842;SDS011;3460;52.028;8.916;2023-02-12T00:23:10;32.63;;;23.47;;
6842;SDS011;3460;52.028;8.916;2023-02-12T00:25:39;31.87;;;22.63;;
6842;SDS011;3460;52.028;8.916;2023-02-12T00:28:06;35.87;;;22.37;;
6842;SDS011;3460;52.028;8.916;2023-02-12T00:30:33;28.57;;;22.40;;
6842;SDS011;3460;52.028;8.916;2023-02-12T00:33:00;34.93;;;22.37;;
6842;SDS011;3460;52.028;8.916;2023-02-12T00:35:27;34.60;;;23.47;;
6842;SDS011;3460;52.028;8.916;2023-02-12T00:37:53;35.23;;;22.03;;
6842;SDS011;3460;52.028;8.916;2023-02-12T00:40:21;35.20;;;22.63;;
6842;SDS011;3460;52.028;8.916;2023-02-12T00:42:48;33.27;;;22.80;;
6842;SDS011;3460;52.028;8.916;2023-02-12T00:45:14;34.47;;;22.07;;
6842;SDS011;3460;52.028;8.916;2023-02-12T00:47:41;30.00;;;22.20;;
6842;SDS011;3460;52.028;8.916;2023-02-12T00:50:08;31.67;;;22.90;;
6842;SDS011;3460;52.028;8.916;2023-02-12T00:52:35;34.97;;;24.00;;
6842;SDS011;3460;52.028;8.916;2023-02-12T00:55:02;32.63;;;23.27;;
6842;SDS011;3460;52.028;8.916;2023-02-12T00:57:30;34.40;;;23.20;;
6842;SDS011;3460;52.028;8.916;2023-02-12T00:59:57;30.27;;;22.97;;
6842;SDS011;3460;52.028;8.916;2023-02-12T01:02:24;34.50;;;22.67;;
6842;SDS011;3460;52.028;8.916;2023-02-12T01:04:50;35.00;;;23.63;;
6842;SDS011;3460;52.028;8.916;2023-02-12T01:07:17;29.33;;;21.63;;
6842;SDS011;3460;52.028;8.916;2023-02-12T01:09:44;33.27;;;23.13;;
6842;SDS011;3460;52.028;8.916;2023-02-12T01:12:10;33.73;;;23.23;;
6842;SDS011;3460;52.028;8.916;2023-02-12T01:14:38;33.13;;;22.70;;
6842;SDS011;3460;52.028;8.916;2023-02-12T01:17:06;34.67;;;22.63;;
6842;SDS011;3460;52.028;8.916;2023-02-12T01:19:33;32.87;;;22.67;;
6842;SDS011;3460;52.028;8.916;2023-02-12T01:21:59;36.43;;;23.10;;
6842;SDS011;3460;52.028;8.916;2023-02-12T01:24:26;34.70;;;23.40;;
6842;SDS011;3460;52.028;8.916;2023-02-12T01:26:53;31.33;;;22.87;;
6842;SDS011;3460;52.028;8.916;2023-02-12T01:29:19;36.47;;;23.47;;
6842;SDS011;3460;52.028;8.916;2023-02-12T01:31:47;35.37;;;23.67;;
6842;SDS011;3460;52.028;8.916;2023-02-12T01:34:14;34.37;;;23.40;;
6842;SDS011;3460;52.028;8.916;2023-02-12T01:36:40;32.93;;;22.77;;
6842;SDS011;3460;52.028;8.916;2023-02-12T01:39:07;32.20;;;22.67;;
6842;SDS011;3460;52.028;8.916;2023-02-12T01:41:38;35.40;;;22.70;;
6842;SDS011;3460;52.028;8.916;2023-02-12T01:44:07;36.60;;;23.43;;
6842;SDS011;3460;52.028;8.916;2023-02-12T01:46:36;32.03;;;22.03;;
6842;SDS011;3460;52.028;8.916;2023-02-12T01:49:05;35.53;;;22.93;;
6842;SDS011;3460;52.028;8.916;2023-02-12T01:51:36;35.87;;;23.50;;
6842;SDS011;3460;52.028;8.916;2023-02-12T01:54:04;36.50;;;22.90;;
6842;SDS011;3460;52.028;8.916;2023-02-12T01:56:33;34.60;;;21.97;;
6842;SDS011;3460;52.028;8.916;2023-02-12T01:59:00;30.93;;;21.40;;
6842;SDS011;3460;52.028;8.916;2023-02-12T02:01:27;36.10;;;23.53;;
6842;SDS011;3460;52.028;8.916;2023-02-12T02:03:56;32.07;;;22.13;;
6842;SDS011;3460;52.028;8.916;2023-02-12T02:06:28;32.13;;;22.30;;
6842;SDS011;3460;52.028;8.916;2023-02-12T02:08:58;32.23;;;22.07;;
6842;SDS011;3460;52.028;8.916;2023-02-12T02:11:25;35.70;;;22.47;;
6842;SDS011;3460;52.028;8.916;2023-02-12T02:14:10;32.67;;;21.83;;
6842;SDS011;3460;52.028;8.916;2023-02-12T02:16:56;34.83;;;22.23;;
6842;SDS011;3460;52.028;8.916;2023-02-12T02:19:44;31.33;;;22.57;;
6842;SDS011;3460;52.028;8.916;2023-02-12T02:22:28;31.77;;;22.00;;
6842;SDS011;3460;52.028;8.916;2023-02-12T02:28:08;35.70;;;22.63;;
6842;SDS011;3460;52.028;8.916;2023-02-12T02:30:53;35.23;;;22.37;;
6842;SDS011;3460;52.028;8.916;2023-02-12T02:33:24;35.07;;;22.83;;
6842;SDS011;3460;52.028;8.916;2023-02-12T02:36:02;31.87;;;22.57;;
6842;SDS011;3460;52.028;8.916;2023-02-12T02:38:41;33.20;;;22.73;;
6842;SDS011;3460;52.028;8.916;2023-02-12T02:41:15;32.80;;;22.23;;
6842;SDS011;3460;52.028;8.916;2023-02-12T02:43:47;33.40;;;23.33;;
6842;SDS011;3460;52.028;8.916;2023-02-12T02:46:16;33.23;;;22.33;;
6842;SDS011;3460;52.028;8.916;2023-02-12T02:48:49;31.90;;;22.43;;
6842;SDS011;3460;52.028;8.916;2023-02-12T02:51:19;35.17;;;22.97;;
6842;SDS011;3460;52.028;8.916;2023-02-12T02:53:50;35.17;;;23.10;;
6842;SDS011;3460;52.028;8.916;2023-02-12T02:56:22;28.80;;;21.23;;
6842;SDS011;3460;52.028;8.916;2023-02-12T02:58:51;34.27;;;22.33;;
6842;SDS011;3460;52.028;8.916;2023-02-12T03:01:23;33.47;;;23.27;;
6842;SDS011;3460;52.028;8.916;2023-02-12T03:03:55;33.93;;;23.30;;
6842;SDS011;3460;52.028;8.916;2023-02-12T03:06:29;37.90;;;22.70;;
6842;SDS011;3460;52.028;8.916;2023-02-12T03:09:00;35.33;;;22.63;;
6842;SDS011;3460;52.028;8.916;2023-02-12T03:11:32;35.70;;;22.87;;
6842;SDS011;3460;52.028;8.916;2023-02-12T03:14:01;35.93;;;22.77;;
6842;SDS011;3460;52.028;8.916;2023-02-12T03:16:34;35.93;;;22.70;;
6842;SDS011;3460;52.028;8.916;2023-02-12T03:19:05;34.87;;;22.93;;
6842;SDS011;3460;52.028;8.916;2023-02-12T03:21:38;33.87;;;23.40;;
6842;SDS011;3460;52.028;8.916;2023-02-12T03:24:10;35.93;;;24.10;;
6842;SDS011;3460;52.028;8.916;2023-02-12T03:26:42;35.40;;;24.37;;
6842;SDS011;3460;52.028;8.916;2023-02-12T03:29:11;37.27;;;23.20;;
6842;SDS011;3460;52.028;8.916;2023-02-12T03:31:43;35.83;;;22.90;;
6842;SDS011;3460;52.028;8.916;2023-02-12T03:34:23;35.07;;;23.43;;
6842;SDS011;3460;52.028;8.916;2023-02-12T03:36:55;37.87;;;23.53;;
6842;SDS011;3460;52.028;8.916;2023-02-12T03:39:28;32.83;;;21.93;;
6842;SDS011;3460;52.028;8.916;2023-02-12T03:42:01;32.60;;;22.90;;
6842;SDS011;3460;52.028;8.916;2023-02-12T03:44:36;39.70;;;23.43;;
6842;SDS011;3460;52.028;8.916;2023-02-12T03:47:20;38.97;;;23.53;;
6842;SDS011;3460;52.028;8.916;2023-02-12T03:49:56;39.97;;;24.53;;
6842;SDS011;3460;52.028;8.916;2023-02-12T03:52:27;35.90;;;24.37;;
6842;SDS011;3460;52.028;8.916;2023-02-12T03:54:55;36.93;;;23.80;;
6842;SDS011;3460;52.028;8.916;2023-02-12T03:57:23;40.53;;;24.53;;
6842;SDS011;3460;52.028;8.916;2023-02-12T03:59:54;36.07;;;23.73;;
6842;SDS011;3460;52.028;8.916;2023-02-12T04:02:24;38.00;;;24.63;;
6842;SDS011;3460;52.028;8.916;2023-02-12T04:04:50;37.60;;;23.57;;
6842;SDS011;3460;52.028;8.916;2023-02-12T04:07:17;36.47;;;25.10;;
6842;SDS011;3460;52.028;8.916;2023-02-12T04:09:44;37.80;;;24.20;;
6842;SDS011;3460;52.028;8.916;2023-02-12T04:12:24;39.37;;;23.97;;
6842;SDS011;3460;52.028;8.916;2023-02-12T04:15:15;37.83;;;23.27;;
6842;SDS011;3460;52.028;8.916;2023-02-12T04:17:58;38.70;;;24.93;;
6842;SDS011;3460;52.028;8.916;2023-02-12T04:20:31;38.17;;;24.93;;
6842;SDS011;3460;52.028;8.916;2023-02-12T04:23:08;40.90;;;25.03;;
6842;SDS011;3460;52.028;8.916;2023-02-12T04:25:43;38.40;;;24.37;;
6842;SDS011;3460;52.028;8.916;2023-02-12T04:28:20;38.57;;;24.83;;
6842;SDS011;3460;52.028;8.916;2023-02-12T04:30:56;40.50;;;25.47;;
6842;SDS011;3460;52.028;8.916;2023-02-12T04:33:27;37.30;;;24.20;;
6842;SDS011;3460;52.028;8.916;2023-02-12T04:36:01;40.73;;;25.30;;
6842;SDS011;3460;52.028;8.916;2023-02-12T04:38:32;41.10;;;25.93;;
6842;SDS011;3460;52.028;8.916;2023-02-12T04:41:03;41.30;;;25.97;;
6842;SDS011;3460;52.028;8.916;2023-02-12T04:43:32;40.07;;;25.37;;
6842;SDS011;3460;52.028;8.916;2023-02-12T04:46:00;35.47;;;24.47;;
6842;SDS011;3460;52.028;8.916;2023-02-12T04:48:28;42.90;;;25.60;;
6842;SDS011;3460;52.028;8.916;2023-02-12T04:50:55;38.20;;;26.30;;
6842;SDS011;3460;52.028;8.916;2023-02-12T04:53:22;40.17;;;25.40;;
6842;SDS011;3460;52.028;8.916;2023-02-12T04:55:49;40.63;;;25.93;;
6842;SDS011;3460;52.028;8.916;2023-02-12T04:58:15;41.00;;;26.57;;
6842;SDS011;3460;52.028;8.916;2023-02-12T05:00:42;40.57;;;25.37;;
6842;SDS011;3460;52.028;8.916;2023-02-12T05:03:09;42.07;;;26.77;;
6842;SDS011;3460;52.028;8.916;2023-02-12T05:05:37;41.93;;;25.43;;
6842;SDS011;3460;52.028;8.916;2023-02-12T05:08:04;38.07;;;25.33;;
6842;SDS011;3460;52.028;8.916;2023-02-12T05:10:30;39.57;;;24.30;;
6842;SDS011;3460;52.028;8.916;2023-02-12T05:12:57;36.77;;;25.67;;
6842;SDS011;3460;52.028;8.916;2023-02-12T05:15:23;38.53;;;24.47;;
6842;SDS011;3460;52.028;8.916;2023-02-12T05:17:50;35.17;;;24.03;;
6842;SDS011;3460;52.028;8.916;2023-02-12T05:20:17;35.97;;;24.17;;
6842;SDS011;3460;52.028;8.916;2023-02-12T05:22:45;38.03;;;24.67;;
6842;SDS011;3460;52.028;8.916;2023-02-12T05:25:15;38.77;;;24.90;;
6842;SDS011;3460;52.028;8.916;2023-02-12T05:27:42;39.40;;;25.70;;
6842;SDS011;3460;52.028;8.916;2023-02-12T05:30:09;54.47;;;39.73;;
6842;SDS011;3460;52.028;8.916;2023-02-12T05:32:36;35.63;;;24.53;;
6842;SDS011;3460;52.028;8.916;2023-02-12T05:35:03;41.03;;;29.70;;
6842;SDS011;3460;52.028;8.916;2023-02-12T05:37:32;37.07;;;24.60;;
6842;SDS011;3460;52.028;8.916;2023-02-12T05:40:01;34.50;;;23.97;;
6842;SDS011;3460;52.028;8.916;2023-02-12T05:42:28;35.70;;;24.67;;
6842;SDS011;3460;52.028;8.916;2023-02-12T05:44:55;38.63;;;23.70;;
6842;SDS011;3460;52.028;8.916;2023-02-12T05:47:21;32.80;;;22.77;;
6842;SDS011;3460;52.028;8.916;2023-02-12T05:49:48;33.87;;;23.03;;
6842;SDS011;3460;52.028;8.916;2023-02-12T05:52:15;38.67;;;24.57;;
6842;SDS011;3460;52.028;8.916;2023-02-12T05:54:41;34.40;;;22.63;;
6842;SDS011;3460;52.028;8.916;2023-02-12T05:57:09;36.17;;;23.27;;
6842;SDS011;3460;52.028;8.916;2023-02-12T05:59:36;35.67;;;22.50;;
6842;SDS011;3460;52.028;8.916;2023-02-12T06:02:02;36.33;;;22.73;;
6842;SDS011;3460;52.028;8.916;2023-02-12T06:04:29;36.87;;;24.03;;
6842;SDS011;3460;52.028;8.916;2023-02-12T06:06:56;34.43;;;23.73;;
6842;SDS011;3460;52.028;8.916;2023-02-12T06:09:23;37.07;;;23.57;;
6842;SDS011;3460;52.028;8.916;2023-02-12T06:11:49;32.70;;;22.60;;
6842;SDS011;3460;52.028;8.916;2023-02-12T06:14:18;38.90;;;22.87;;
6842;SDS011;3460;52.028;8.916;2023-02-12T06:16:46;33.50;;;22.17;;
6842;SDS011;3460;52.028;8.916;2023-02-12T06:19:14;31.90;;;22.57;;
6842;SDS011;3460;52.028;8.916;2023-02-12T06:21:41;32.47;;;21.40;;
6842;SDS011;3460;52.028;8.916;2023-02-12T06:24:08;34.17;;;22.33;;
6842;SDS011;3460;52.028;8.916;2023-02-12T06:26:36;36.63;;;22.23;;
6842;SDS011;3460;52.028;8.916;2023-02-12T06:29:02;33.33;;;21.77;;
6842;SDS011;3460;52.028;8.916;2023-02-12T06:31:31;34.97;;;22.83;;
6842;SDS011;3460;52.028;8.916;2023-02-12T06:33:59;36.07;;;22.50;;
6842;SDS011;3460;52.028;8.916;2023-02-12T06:36:28;33.03;;;22.53;;
6842;SDS011;3460;52.028;8.916;2023-02-12T06:38:55;32.90;;;22.03;;
6842;SDS011;3460;52.028;8.916;2023-02-12T06:41:21;36.70;;;22.60;;
6842;SDS011;3460;52.028;8.916;2023-02-12T06:43:48;36.63;;;23.37;;
6842;SDS011;3460;52.028;8.916;2023-02-12T06:46:16;34.30;;;22.13;;
6842;SDS011;3460;52.028;8.916;2023-02-12T06:48:44;32.23;;;21.83;;
6842;SDS011;3460;52.028;8.916;2023-02-12T06:51:11;37.00;;;23.50;;
6842;SDS011;3460;52.028;8.916;2023-02-12T06:53:40;36.63;;;22.07;;
6842;SDS011;3460;52.028;8.916;2023-02-12T06:56:08;36.53;;;23.23;;
6842;SDS011;3460;52.028;8.916;2023-02-12T06:58:37;33.23;;;22.47;;
6842;SDS011;3460;52.028;8.916;2023-02-12T07:01:07;34.97;;;21.47;;
6842;SDS011;3460;52.028;8.916;2023-02-12T07:03:37;34.57;;;22.03;;
6842;SDS011;3460;52.028;8.916;2023-02-12T07:06:05;32.77;;;21.60;;
6842;SDS011;3460;52.028;8.916;2023-02-12T07:08:32;34.27;;;22.37;;
6842;SDS011;3460;52.028;8.916;2023-02-12T07:10:59;33.83;;;22.17;;
6842;SDS011;3460;52.028;8.916;2023-02-12T07:13:26;35.57;;;21.77;;
6842;SDS011;3460;52.028;8.916;2023-02-12T07:15:52;32.90;;;21.50;;
6842;SDS011;3460;52.028;8.916;2023-02-12T07:18:19;29.50;;;19.83;;
6842;SDS011;3460;52.028;8.916;2023-02-12T07:20:45;30.17;;;20.23;;
6842;SDS011;3460;52.028;8.916;2023-02-12T07:23:13;28.07;;;19.40;;
6842;SDS011;3460;52.028;8.916;2023-02-12T07:25:40;28.07;;;19.70;;
6842;SDS011;3460;52.028;8.916;2023-02-12T07:28:07;26.77;;;18.50;;
6842;SDS011;3460;52.028;8.916;2023-02-12T07:30:33;27.47;;;18.10;;
6842;SDS011;3460;52.028;8.916;2023-02-12T07:33:00;27.03;;;18.63;;
6842;SDS011;3460;52.028;8.916;2023-02-12T07:35:26;27.40;;;18.70;;
6842;SDS011;3460;52.028;8.916;2023-02-12T07:37:53;26.23;;;18.90;;
6842;SDS011;3460;52.028;8.916;2023-02-12T07:40:21;25.20;;;18.33;;
6842;SDS011;3460;52.028;8.916;2023-02-12T07:42:47;24.53;;;17.90;;
6842;SDS011;3460;52.028;8.916;2023-02-12T07:45:19;24.77;;;17.53;;
6842;SDS011;3460;52.028;8.916;2023-02-12T07:47:45;22.30;;;17.80;;
6842;SDS011;3460;52.028;8.916;2023-02-12T07:50:12;25.17;;;17.63;;
6842;SDS011;3460;52.028;8.916;2023-02-12T07:52:39;26.07;;;18.20;;
6842;SDS011;3460;52.028;8.916;2023-02-12T07:55:06;27.27;;;18.70;;
6842;SDS011;3460;52.028;8.916;2023-02-12T07:57:34;26.27;;;19.70;;
6842;SDS011;3460;52.028;8.916;2023-02-12T08:00:02;24.27;;;19.20;;
6842;SDS011;3460;52.028;8.916;2023-02-12T08:02:29;30.03;;;19.87;;
6842;SDS011;3460;52.028;8.916;2023-02-12T08:04:56;23.07;;;19.10;;
6842;SDS011;3460;52.028;8.916;2023-02-12T08:07:23;30.23;;;21.50;;
6842;SDS011;3460;52.028;8.916;2023-02-12T08:09:50;30.73;;;21.83;;
6842;SDS011;3460;52.028;8.916;2023-02-12T08:12:17;32.37;;;23.33;;
6842;SDS011;3460;52.028;8.916;2023-02-12T08:14:45;31.40;;;22.23;;
6842;SDS011;3460;52.028;8.916;2023-02-12T08:17:12;31.30;;;22.40;;
6842;SDS011;3460;52.028;8.916;2023-02-12T08:19:39;30.83;;;22.67;;
6842;SDS011;3460;52.028;8.916;2023-02-12T08:22:05;39.17;;;24.43;;
6842;SDS011;3460;52.028;8.916;2023-02-12T08:24:32;34.80;;;23.50;;
6842;SDS011;3460;52.028;8.916;2023-02-12T08:26:59;36.57;;;24.57;;
6842;SDS011;3460;52.028;8.916;2023-02-12T08:29:26;36.97;;;24.43;;
6842;SDS011;3460;52.028;8.916;2023-02-12T08:31:55;36.00;;;24.73;;
6842;SDS011;3460;52.028;8.916;2023-02-12T08:34:24;33.80;;;23.77;;
6842;SDS011;3460;52.028;8.916;2023-02-12T08:36:52;37.43;;;24.50;;
6842;SDS011;3460;52.028;8.916;2023-02-12T08:39:20;34.60;;;23.97;;
6842;SDS011;3460;52.028;8.916;2023-02-12T08:41:47;32.70;;;23.20;;
6842;SDS011;3460;52.028;8.916;2023-02-12T08:44:14;35.50;;;23.27;;
6842;SDS011;3460;52.028;8.916;2023-02-12T08:46:43;37.57;;;25.33;;
6842;SDS011;3460;52.028;8.916;2023-02-12T08:49:13;33.77;;;23.03;;
6842;SDS011;3460;52.028;8.916;2023-02-12T08:51:41;37.17;;;23.57;;
6842;SDS011;3460;52.028;8.916;2023-02-12T08:54:10;34.40;;;24.23;;
6842;SDS011;3460;52.028;8.916;2023-02-12T08:56:38;34.70;;;24.80;;
6842;SDS011;3460;52.028;8.916;2023-02-12T08:59:05;38.30;;;26.00;;
6842;SDS011;3460;52.028;8.916;2023-02-12T09:01:34;36.37;;;24.87;;
6842;SDS011;3460;52.028;8.916;2023-02-12T09:04:03;38.33;;;25.67;;
6842;SDS011;3460;52.028;8.916;2023-02-12T09:06:32;36.77;;;24.33;;
6842;SDS011;3460;52.028;8.916;2023-02-12T09:09:00;36.00;;;24.53;;
6842;SDS011;3460;52.028;8.916;2023-02-12T09:11:27;40.73;;;26.60;;
6842;SDS011;3460;52.028;8.916;2023-02-12T09:13:55;38.37;;;25.87;;
6842;SDS011;3460;52.028;8.916;2023-02-12T09:16:23;40.00;;;25.43;;
6842;SDS011;3460;52.028;8.916;2023-02-12T09:18:50;39.00;;;25.53;;
6842;SDS011;3460;52.028;8.916;2023-02-12T09:21:17;39.13;;;25.77;;
6842;SDS011;3460;52.028;8.916;2023-02-12T09:23:45;40.13;;;26.40;;
6842;SDS011;3460;52.028;8.916;2023-02-12T09:26:13;47.47;;;26.20;;
6842;SDS011;3460;52.028;8.916;2023-02-12T09:28:41;40.47;;;26.27;;
6842;SDS011;3460;52.028;8.916;2023-02-12T09:31:09;42.97;;;26.47;;
6842;SDS011;3460;52.028;8.916;2023-02-12T09:33:37;48.83;;;28.07;;
6842;SDS011;3460;52.028;8.916;2023-02-12T09:36:05;42.20;;;27.13;;
6842;SDS011;3460;52.028;8.916;2023-02-12T09:38:33;42.57;;;25.83;;
6842;SDS011;3460;52.028;8.916;2023-02-12T09:41:09;40.50;;;25.43;;
6842;SDS011;3460;52.028;8.916;2023-02-12T09:43:49;36.30;;;25.30;;
6842;SDS011;3460;52.028;8.916;2023-02-12T09:46:24;36.07;;;23.93;;
6842;SDS011;3460;52.028;8.916;2023-02-12T09:48:56;35.90;;;24.23;;
6842;SDS011;3460;52.028;8.916;2023-02-12T09:51:32;36.27;;;23.33;;
6842;SDS011;3460;52.028;8.916;2023-02-12T09:54:01;36.73;;;23.20;;
6842;SDS011;3460;52.028;8.916;2023-02-12T09:56:31;33.13;;;23.17;;
6842;SDS011;3460;52.028;8.916;2023-02-12T09:59:00;32.50;;;22.10;;
6842;SDS011;3460;52.028;8.916;2023-02-12T10:01:30;35.23;;;21.37;;
6842;SDS011;3460;52.028;8.916;2023-02-12T10:03:56;30.03;;;21.60;;
6842;SDS011;3460;52.028;8.916;2023-02-12T10:06:24;30.60;;;21.03;;
6842;SDS011;3460;52.028;8.916;2023-02-12T10:08:56;31.30;;;21.93;;
6842;SDS011;3460;52.028;8.916;2023-02-12T10:11:49;30.47;;;20.40;;
6842;SDS011;3460;52.028;8.916;2023-02-12T10:14:25;31.73;;;21.63;;
6842;SDS011;3460;52.028;8.916;2023-02-12T10:17:07;29.47;;;20.77;;
6842;SDS011;3460;52.028;8.916;2023-02-12T10:19:51;31.47;;;21.67;;
6842;SDS011;3460;52.028;8.916;2023-02-12T10:22:28;32.50;;;22.83;;
6842;SDS011;3460;52.028;8.916;2023-02-12T10:25:02;34.83;;;22.83;;
6842;SDS011;3460;52.028;8.916;2023-02-12T10:27:42;33.90;;;22.30;;
6842;SDS011;3460;52.028;8.916;2023-02-12T10:30:15;34.77;;;22.40;;
6842;SDS011;3460;52.028;8.916;2023-02-12T10:32:46;30.67;;;20.80;;
6842;SDS011;3460;52.028;8.916;2023-02-12T10:35:17;31.60;;;21.87;;
6842;SDS011;3460;52.028;8.916;2023-02-12T10:37:47;33.20;;;20.97;;
6842;SDS011;3460;52.028;8.916;2023-02-12T10:40:17;33.30;;;21.90;;
6842;SDS011;3460;52.028;8.916;2023-02-12T10:42:48;33.43;;;22.23;;
6842;SDS011;3460;52.028;8.916;2023-02-12T10:45:17;33.63;;;22.03;;
6842;SDS011;3460;52.028;8.916;2023-02-12T10:47:45;34.90;;;22.57;;
6842;SDS011;3460;52.028;8.916;2023-02-12T10:50:20;35.97;;;22.57;;
6842;SDS011;3460;52.028;8.916;2023-02-12T10:52:55;30.57;;;20.57;;
6842;SDS011;3460;52.028;8.916;2023-02-12T10:55:25;33.00;;;22.20;;
6842;SDS011;3460;52.028;8.916;2023-02-12T10:57:55;33.67;;;20.90;;
6842;SDS011;3460;52.028;8.916;2023-02-12T11:00:24;32.27;;;21.73;;
6842;SDS011;3460;52.028;8.916;2023-02-12T11:03:00;31.73;;;20.93;;
6842;SDS011;3460;52.028;8.916;2023-02-12T11:05:30;34.00;;;22.23;;
6842;SDS011;3460;52.028;8.916;2023-02-12T11:07:59;27.97;;;20.30;;
6842;SDS011;3460;52.028;8.916;2023-02-12T11:10:27;29.87;;;20.93;;
6842;SDS011;3460;52.028;8.916;2023-02-12T11:12:57;29.57;;;21.50;;
6842;SDS011;3460;52.028;8.916;2023-02-12T11:15:25;30.07;;;20.40;;
6842;SDS011;3460;52.028;8.916;2023-02-12T11:17:55;29.40;;;20.83;;
6842;SDS011;3460;52.028;8.916;2023-02-12T11:20:25;32.37;;;20.80;;
6842;SDS011;3460;52.028;8.916;2023-02-12T11:22:54;32.23;;;21.40;;
6842;SDS011;3460;52.028;8.916;2023-02-12T11:25:23;33.87;;;21.57;;
6842;SDS011;3460;52.028;8.916;2023-02-12T11:28:04;34.50;;;21.57;;
6842;SDS011;3460;52.028;8.916;2023-02-12T11:30:48;31.67;;;21.20;;
6842;SDS011;3460;52.028;8.916;2023-02-12T11:33:24;34.27;;;21.77;;
6842;SDS011;3460;52.028;8.916;2023-02-12T11:35:56;31.67;;;21.67;;
6842;SDS011;3460;52.028;8.916;2023-02-12T11:38:29;32.60;;;22.23;;
6842;SDS011;3460;52.028;8.916;2023-02-12T11:40:59;32.50;;;21.60;;
6842;SDS011;3460;52.028;8.916;2023-02-12T11:43:33;35.40;;;21.73;;
6842;SDS011;3460;52.028;8.916;2023-02-12T11:46:01;35.77;;;21.50;;
6842;SDS011;3460;52.028;8.916;2023-02-12T11:48:29;33.70;;;21.33;;
6842;SDS011;3460;52.028;8.916;2023-02-12T11:50:59;32.80;;;21.47;;
6842;SDS011;3460;52.028;8.916;2023-02-12T11:53:29;31.83;;;21.33;;
6842;SDS011;3460;52.028;8.916;2023-02-12T11:55:58;31.47;;;20.53;;
6842;SDS011;3460;52.028;8.916;2023-02-12T11:58:27;35.83;;;19.77;;
6842;SDS011;3460;52.028;8.916;2023-02-12T12:01:02;31.40;;;20.37;;
6842;SDS011;3460;52.028;8.916;2023-02-12T12:03:35;35.43;;;20.80;;
6842;SDS011;3460;52.028;8.916;2023-02-12T12:06:08;34.23;;;20.77;;
6842;SDS011;3460;52.028;8.916;2023-02-12T12:08:45;31.93;;;20.37;;
6842;SDS011;3460;52.028;8.916;2023-02-12T12:11:16;32.70;;;19.70;;
6842;SDS011;3460;52.028;8.916;2023-02-12T12:13:47;34.40;;;20.63;;
6842;SDS011;3460;52.028;8.916;2023-02-12T12:16:20;32.80;;;21.17;;
6842;SDS011;3460;52.028;8.916;2023-02-12T12:19:11;34.53;;;21.33;;
6842;SDS011;3460;52.028;8.916;2023-02-12T12:22:02;39.57;;;21.70;;
6842;SDS011;3460;52.028;8.916;2023-02-12T12:24:34;32.20;;;20.70;;
6842;SDS011;3460;52.028;8.916;2023-02-12T12:27:08;33.27;;;19.67;;
6842;SDS011;3460;52.028;8.916;2023-02-12T12:30:00;30.03;;;18.53;;
6842;SDS011;3460;52.028;8.916;2023-02-12T12:32:32;30.67;;;19.77;;
6842;SDS011;3460;52.028;8.916;2023-02-12T12:35:01;34.33;;;19.40;;
6842;SDS011;3460;52.028;8.916;2023-02-12T12:37:29;34.63;;;21.07;;
6842;SDS011;3460;52.028;8.916;2023-02-12T12:40:07;31.03;;;20.50;;
6842;SDS011;3460;52.028;8.916;2023-02-12T12:42:54;31.80;;;18.87;;
6842;SDS011;3460;52.028;8.916;2023-02-12T12:45:46;36.10;;;20.07;;
6842;SDS011;3460;52.028;8.916;2023-02-12T12:48:30;28.77;;;19.27;;
6842;SDS011;3460;52.028;8.916;2023-02-12T12:51:11;28.43;;;17.77;;
6842;SDS011;3460;52.028;8.916;2023-02-12T12:53:50;29.10;;;17.60;;
6842;SDS011;3460;52.028;8.916;2023-02-12T12:56:30;29.57;;;17.63;;
6842;SDS011;3460;52.028;8.916;2023-02-12T12:59:25;25.57;;;17.03;;
6842;SDS011;3460;52.028;8.916;2023-02-12T13:05:11;24.77;;;15.27;;
6842;SDS011;3460;52.028;8.916;2023-02-12T13:07:51;25.93;;;16.23;;
6842;SDS011;3460;52.028;8.916;2023-02-12T13:10:27;22.00;;;15.47;;
6842;SDS011;3460;52.028;8.916;2023-02-12T13:13:17;23.43;;;15.27;;
6842;SDS011;3460;52.028;8.916;2023-02-12T13:15:52;20.97;;;13.90;;
6842;SDS011;3460;52.028;8.916;2023-02-12T13:18:28;17.07;;;11.93;;
6842;SDS011;3460;52.028;8.916;2023-02-12T13:21:04;18.57;;;12.27;;
6842;SDS011;3460;52.028;8.916;2023-02-12T13:23:40;19.33;;;11.53;;
6842;SDS011;3460;52.028;8.916;2023-02-12T13:26:13;18.50;;;14.20;;
6842;SDS011;3460;52.028;8.916;2023-02-12T13:28:45;26.53;;;15.63;;
6842;SDS011;3460;52.028;8.916;2023-02-12T13:31:15;18.20;;;12.50;;
6842;SDS011;3460;52.028;8.916;2023-02-12T13:33:46;22.00;;;14.50;;
6842;SDS011;3460;52.028;8.916;2023-02-12T13:36:17;27.90;;;20.40;;
6842;SDS011;3460;52.028;8.916;2023-02-12T13:38:45;22.37;;;13.53;;
6842;SDS011;3460;52.028;8.916;2023-02-12T13:41:16;16.43;;;12.43;;
6842;SDS011;3460;52.028;8.916;2023-02-12T13:43:48;17.83;;;12.37;;
6842;SDS011;3460;52.028;8.916;2023-02-12T13:46:27;18.67;;;11.60;;
6842;SDS011;3460;52.028;8.916;2023-02-12T13:49:05;14.80;;;10.63;;
6842;SDS011;3460;52.028;8.916;2023-02-12T13:51:42;17.43;;;11.83;;
6842;SDS011;3460;52.028;8.916;2023-02-12T13:54:14;18.83;;;13.07;;
6842;SDS011;3460;52.028;8.916;2023-02-12T13:56:50;17.00;;;11.80;;
6842;SDS011;3460;52.028;8.916;2023-02-12T14:05:13;15.73;;;10.43;;
6842;SDS011;3460;52.028;8.916;2023-02-12T14:07:56;12.57;;;9.20;;
6842;SDS011;3460;52.028;8.916;2023-02-12T14:10:27;13.00;;;9.60;;
6842;SDS011;3460;52.028;8.916;2023-02-12T14:12:57;12.90;;;8.53;;
6842;SDS011;3460;52.028;8.916;2023-02-12T14:15:35;15.03;;;9.80;;
6842;SDS011;3460;52.028;8.916;2023-02-12T14:18:05;16.70;;;12.50;;
6842;SDS011;3460;52.028;8.916;2023-02-12T14:20:45;13.23;;;10.03;;
6842;SDS011;3460;52.028;8.916;2023-02-12T14:25:59;14.93;;;10.43;;
6842;SDS011;3460;52.028;8.916;2023-02-12T14:28:30;16.03;;;10.50;;
6842;SDS011;3460;52.028;8.916;2023-02-12T14:31:20;11.40;;;8.87;;
6842;SDS011;3460;52.028;8.916;2023-02-12T14:43:25;15.10;;;10.30;;
6842;SDS011;3460;52.028;8.916;2023-02-12T14:45:57;15.10;;;10.77;;
6842;SDS011;3460;52.028;8.916;2023-02-12T14:48:49;14.73;;;9.27;;
6842;SDS011;3460;52.028;8.916;2023-02-12T14:51:19;16.03;;;11.87;;
6842;SDS011;3460;52.028;8.916;2023-02-12T14:53:48;16.60;;;10.57;;
6842;SDS011;3460;52.028;8.916;2023-02-12T14:56:18;15.80;;;11.00;;
6842;SDS011;3460;52.028;8.916;2023-02-12T14:58:47;12.50;;;10.13;;
6842;SDS011;3460;52.028;8.916;2023-02-12T15:01:15;12.90;;;10.37;;
6842;SDS011;3460;52.028;8.916;2023-02-12T15:03:45;15.47;;;10.77;;
6842;SDS011;3460;52.028;8.916;2023-02-12T15:06:16;12.33;;;8.83;;
6842;SDS011;3460;52.028;8.916;2023-02-12T15:08:48;11.67;;;8.33;;
6842;SDS011;3460;52.028;8.916;2023-02-12T15:11:25;11.77;;;9.07;;
6842;SDS011;3460;52.028;8.916;2023-02-12T15:13:59;15.73;;;9.73;;
6842;SDS011;3460;52.028;8.916;2023-02-12T15:16:33;14.30;;;9.90;;
6842;SDS011;3460;52.028;8.916;2023-02-12T15:19:13;14.97;;;9.63;;
6842;SDS011;3460;52.028;8.916;2023-02-12T15:21:51;13.07;;;8.00;;
6842;SDS011;3460;52.028;8.916;2023-02-12T15:24:20;9.53;;;7.67;;
6842;SDS011;3460;52.028;8.916;2023-02-12T15:26:48;11.67;;;8.67;;
6842;SDS011;3460;52.028;8.916;2023-02-12T15:29:18;12.13;;;8.27;;
6842;SDS011;3460;52.028;8.916;2023-02-12T15:31:50;11.97;;;8.47;;
6842;SDS011;3460;52.028;8.916;2023-02-12T15:34:20;12.37;;;8.43;;